Time;durP1;ratioP1;P1;durP2;ratioP2;P2;SDS_P1;SDS_P2;PMS_P1;PMS_P2;Temp;Humidity;BMP_temperature;BMP_pressure;BME280_temperature;BME280_humidity;BME280_pressure;Samples;Min_cycle;Max_cycle;Signal;HPM_P1;HPM_P2
2022/01/22 00:02:04;;;;;;;4.50;2.10;;;;;;;1.55;69.92;96820.56;5015668;28;20758;-82
2022/01/22 00:04:30;;;;;;;3.83;2.10;;;;;;;1.54;69.87;96822.28;5007512;28;20223;-82
2022/01/22 00:06:58;;;;;;;4.27;2.20;;;;;;;1.46;69.60;96821.13;5016045;28;20199;-82
2022/01/22 00:09:28;;;;;;;3.17;2.10;;;;;;;1.52;69.69;96810.59;5014851;28;20225;-82
2022/01/22 00:11:55;;;;;;;6.03;2.30;;;;;;;1.49;69.57;96806.53;5016344;28;20207;-83
2022/01/22 00:14:24;;;;;;;3.13;2.17;;;;;;;1.55;69.16;96803.59;5015895;28;20288;-83
2022/01/22 00:16:51;;;;;;;5.27;2.10;;;;;;;1.58;68.95;96820.38;5017667;28;20214;-83
2022/01/22 00:19:18;;;;;;;3.70;1.97;;;;;;;1.50;69.05;96820.03;5016305;28;20198;-82
2022/01/22 00:21:44;;;;;;;3.47;2.00;;;;;;;1.51;68.90;96816.59;5016328;28;20195;-82
2022/01/22 00:24:12;;;;;;;3.60;2.30;;;;;;;1.46;69.22;96818.56;5015699;28;20249;-82
2022/01/22 00:26:40;;;;;;;4.23;2.00;;;;;;;1.60;69.14;96813.50;5016110;28;20280;-83
2022/01/22 00:29:07;;;;;;;4.90;2.37;;;;;;;1.66;68.56;96813.94;5015052;28;20206;-83
2022/01/22 00:31:34;;;;;;;3.40;2.33;;;;;;;1.67;68.46;96812.22;5016475;28;20211;-83
2022/01/22 00:34:01;;;;;;;5.37;2.17;;;;;;;1.58;68.16;96822.91;5014829;28;20257;-82
2022/01/22 00:36:27;;;;;;;3.00;1.73;;;;;;;1.61;67.82;96808.31;5016006;28;20210;-82
2022/01/22 00:38:54;;;;;;;2.33;2.10;;;;;;;1.72;67.49;96800.91;5014498;28;20633;-82
2022/01/22 00:41:21;;;;;;;2.90;1.67;;;;;;;1.62;67.81;96799.00;5015650;28;20203;-82
2022/01/22 00:43:49;;;;;;;2.33;1.90;;;;;;;1.68;67.40;96802.00;5015054;28;20245;-82
2022/01/22 00:46:16;;;;;;;2.67;1.90;;;;;;;1.67;67.14;96802.06;5015475;28;20226;-82
2022/01/22 00:48:42;;;;;;;3.77;1.77;;;;;;;1.62;66.80;96802.34;5015120;28;20702;-83
2022/01/22 00:51:08;;;;;;;5.83;1.90;;;;;;;1.68;66.27;96801.16;5015406;28;20406;-82
2022/01/22 00:53:35;;;;;;;4.27;2.40;;;;;;;1.67;66.34;96800.34;5015019;28;20227;-82
2022/01/22 00:56:01;;;;;;;2.50;1.83;;;;;;;1.67;66.47;96797.00;5015814;28;20672;-82
2022/01/22 00:58:28;;;;;;;4.00;1.97;;;;;;;1.76;66.49;96783.72;5015492;28;20207;-82
2022/01/22 01:00:56;;;;;;;3.33;1.70;;;;;;;1.80;66.01;96789.44;5015914;28;20225;-82
2022/01/22 01:03:22;;;;;;;3.60;2.40;;;;;;;1.81;65.73;96779.19;5015914;28;20226;-82
2022/01/22 01:05:48;;;;;;;3.00;1.90;;;;;;;1.68;65.83;96775.78;5016358;28;20191;-82
2022/01/22 01:08:15;;;;;;;3.30;1.97;;;;;;;1.69;65.90;96778.22;5014694;28;20202;-82
2022/01/22 01:10:41;;;;;;;4.40;2.10;;;;;;;1.70;65.77;96787.47;5015685;28;20285;-82
2022/01/22 01:13:08;;;;;;;2.13;1.70;;;;;;;1.70;65.65;96790.03;5014812;28;20230;-81
2022/01/22 01:15:42;;;;;;;3.37;2.20;;;;;;;1.81;65.89;96786.81;5015832;28;20210;-82
2022/01/22 01:32:19;;;;;;;3.33;1.97;;;;;;;1.78;64.62;96761.63;5015063;28;20260;-82
2022/01/22 01:34:49;;;;;;;4.83;2.10;;;;;;;1.78;64.00;96746.38;5013914;28;20233;-82
2022/01/22 01:37:18;;;;;;;2.30;2.03;;;;;;;1.68;63.96;96765.63;5014627;28;20195;-82
2022/01/22 01:39:48;;;;;;;2.60;1.80;;;;;;;1.83;64.11;96761.34;5014007;28;20203;-82
2022/01/22 01:42:19;;;;;;;3.53;1.97;;;;;;;1.81;63.76;96765.69;5014541;28;20207;-82
2022/01/22 01:44:46;;;;;;;3.20;2.03;;;;;;;1.89;63.91;96764.31;5015025;28;20219;-82
2022/01/22 01:47:16;;;;;;;2.97;1.53;;;;;;;1.86;63.87;96769.59;5014750;28;20687;-82
2022/01/22 01:49:42;;;;;;;3.27;1.50;;;;;;;1.68;64.35;96776.59;4996356;28;20230;-81
2022/01/22 01:52:16;;;;;;;3.30;1.77;;;;;;;1.74;64.23;96760.97;5012985;28;20214;-82
2022/01/22 01:54:58;;;;;;;2.80;1.73;;;;;;;1.78;64.34;96771.78;5014733;28;20281;-82
2022/01/22 01:57:31;;;;;;;2.30;1.40;;;;;;;1.72;64.34;96772.97;4996102;28;20203;-82
2022/01/22 02:00:00;;;;;;;1.90;1.47;;;;;;;1.72;64.50;96760.28;4995046;28;20588;-82
2022/01/22 02:02:29;;;;;;;1.60;1.50;;;;;;;1.80;64.53;96752.19;4995087;28;20294;-82
2022/01/22 02:04:55;;;;;;;3.30;1.60;;;;;;;1.82;64.15;96755.44;4994603;28;20249;-81
2022/01/22 02:07:23;;;;;;;2.07;1.60;;;;;;;1.89;64.30;96749.09;5002974;28;20615;-82
2022/01/22 02:09:49;;;;;;;2.20;1.37;;;;;;;1.85;64.47;96747.66;5014354;28;20195;-82
2022/01/22 02:12:23;;;;;;;1.30;1.20;;;;;;;1.87;64.50;96730.59;5014347;28;20206;-83
2022/01/22 02:25:48;;;;;;;2.50;1.30;;;;;;;1.83;65.62;96710.56;5013218;28;20547;-82
2022/01/22 02:28:14;;;;;;;1.47;1.10;;;;;;;1.85;65.53;96734.13;5013152;28;20258;-82
2022/01/22 02:30:45;;;;;;;1.33;1.03;;;;;;;1.87;65.63;96712.81;5014539;28;20218;-83
2022/01/22 02:33:24;;;;;;;2.83;1.20;;;;;;;1.87;65.95;96710.28;5012224;28;20280;-82
2022/01/22 02:35:54;;;;;;;1.57;1.30;;;;;;;1.95;65.60;96715.69;5013645;28;20284;-82
2022/01/22 02:38:30;;;;;;;2.43;1.40;;;;;;;1.92;66.23;96710.81;5012910;28;20234;-82
2022/01/22 02:40:56;;;;;;;2.23;1.30;;;;;;;1.92;66.21;96710.81;5013552;28;20230;-82
2022/01/22 02:43:24;;;;;;;1.23;1.13;;;;;;;1.79;66.48;96719.25;5012723;28;20233;-82
2022/01/22 02:45:52;;;;;;;2.83;1.50;;;;;;;1.91;66.51;96710.91;5013095;28;20233;-82
2022/01/22 02:48:18;;;;;;;1.63;1.47;;;;;;;1.98;66.15;96718.03;5012798;28;20218;-82
2022/01/22 02:50:45;;;;;;;2.20;1.40;;;;;;;2.01;66.60;96722.09;5013016;28;20209;-83
2022/01/22 02:53:13;;;;;;;2.10;1.50;;;;;;;1.88;66.46;96714.44;5012274;28;20733;-82
2022/01/22 02:55:42;;;;;;;3.17;1.80;;;;;;;1.91;66.98;96728.69;5013147;28;20207;-83
2022/01/22 02:58:09;;;;;;;3.13;1.60;;;;;;;1.91;66.75;96719.34;5012387;28;20285;-83
2022/01/22 03:00:36;;;;;;;2.53;1.40;;;;;;;1.90;67.51;96721.97;5013349;28;20207;-83
2022/01/22 03:03:02;;;;;;;2.23;1.40;;;;;;;1.96;67.65;96726.66;5012351;28;20227;-83
2022/01/22 03:05:29;;;;;;;1.50;1.20;;;;;;;1.96;67.60;96722.38;5015798;28;20206;-83
2022/01/22 03:07:57;;;;;;;2.23;1.67;;;;;;;1.89;68.26;96716.06;5017051;28;20207;-83
2022/01/22 03:10:26;;;;;;;2.80;1.50;;;;;;;1.91;68.30;96724.41;5018402;28;20198;-83
2022/01/22 03:13:13;;;;;;;2.47;1.47;;;;;;;1.91;68.07;96721.88;5017351;28;20238;-83
2022/01/22 03:18:37;;;;;;;1.93;1.40;;;;;;;2.01;68.23;96722.09;5019587;28;20214;-82
2022/01/22 03:21:12;;;;;;;1.67;1.50;;;;;;;1.96;68.42;96737.63;5017928;28;20202;-83
2022/01/22 03:29:11;;;;;;;2.30;1.40;;;;;;;2.00;68.87;96718.75;5017252;28;20651;-82
2022/01/22 03:31:38;;;;;;;2.13;1.40;;;;;;;2.05;68.87;96715.94;5017519;28;20195;-83
2022/01/22 03:34:05;;;;;;;2.60;1.50;;;;;;;2.12;68.80;96714.63;5016141;28;20289;-83
2022/01/22 03:36:33;;;;;;;1.77;1.50;;;;;;;2.08;69.02;96728.44;5016837;28;20218;-83
2022/01/22 03:39:01;;;;;;;2.90;1.60;;;;;;;2.08;69.15;96713.19;5016336;28;20199;-83
2022/01/22 03:41:28;;;;;;;2.07;1.50;;;;;;;2.04;69.88;96714.28;5016537;28;20213;-83
2022/01/22 03:43:55;;;;;;;3.07;1.83;;;;;;;2.10;69.74;96718.19;5016807;28;20238;-82
2022/01/22 03:46:23;;;;;;;2.33;1.70;;;;;;;2.08;69.99;96725.91;5017353;28;20290;-83
2022/01/22 03:48:49;;;;;;;1.70;1.60;;;;;;;2.07;70.83;96720.00;5016472;28;20195;-83
2022/01/22 03:51:16;;;;;;;3.00;1.80;;;;;;;2.02;71.82;96726.28;5016186;28;20732;-83
2022/01/22 03:53:43;;;;;;;2.93;1.73;;;;;;;2.00;72.22;96723.81;5016551;28;20254;-83
2022/01/22 03:56:11;;;;;;;2.47;1.80;;;;;;;2.00;72.88;96723.00;5017624;28;20811;-82
2022/01/22 03:58:40;;;;;;;3.03;2.07;;;;;;;1.93;74.24;96729.38;5016560;28;20690;-83
2022/01/22 04:01:46;;;;;;;2.00;1.70;;;;;;;1.86;76.33;96725.59;5016822;28;20207;-83
2022/01/22 04:04:14;;;;;;;3.80;1.90;;;;;;;1.88;77.37;96723.78;4998192;28;20237;-82
2022/01/22 04:09:23;;;;;;;2.83;1.77;;;;;;;1.65;81.10;96733.63;4995751;28;20753;-83
2022/01/22 04:11:51;;;;;;;3.93;2.20;;;;;;;1.64;81.15;96729.47;5012873;28;20572;-82
2022/01/22 04:14:22;;;;;;;2.37;1.97;;;;;;;1.78;81.02;96727.78;5015040;28;20872;-82
2022/01/22 04:17:04;;;;;;;2.33;2.13;;;;;;;1.74;81.38;96727.97;5016565;28;20199;-82
2022/01/22 04:25:00;;;;;;;3.57;2.20;;;;;;;1.70;82.03;96724.03;5015284;28;20229;-82
2022/01/22 04:27:27;;;;;;;3.30;2.13;;;;;;;1.70;81.95;96713.88;5015285;28;20206;-83
2022/01/22 04:29:57;;;;;;;4.07;2.40;;;;;;;1.67;82.27;96715.78;5014929;28;20735;-83
2022/01/22 04:32:24;;;;;;;2.37;2.17;;;;;;;1.68;82.75;96715.69;5015228;28;20294;-83
2022/01/22 04:34:52;;;;;;;2.70;2.20;;;;;;;1.63;82.76;96722.75;5010085;28;20715;-83
2022/01/22 04:37:20;;;;;;;3.63;2.47;;;;;;;1.63;82.68;96732.09;5014941;28;20199;-83
2022/01/22 04:39:48;;;;;;;4.53;2.13;;;;;;;1.61;83.08;96731.38;5015756;28;20285;-83
2022/01/22 04:42:14;;;;;;;4.00;2.37;;;;;;;1.65;83.00;96728.56;5015619;28;20210;-83
2022/01/22 04:44:50;;;;;;;3.20;2.30;;;;;;;1.69;82.78;96731.72;5015586;28;20227;-83
2022/01/22 04:47:28;;;;;;;3.10;2.30;;;;;;;1.57;83.31;96742.59;5014968;28;20233;-83
2022/01/22 04:52:43;;;;;;;4.60;2.97;;;;;;;1.68;82.17;96733.44;5015533;28;20774;-83
2022/01/22 04:55:10;;;;;;;3.37;2.67;;;;;;;1.69;82.18;96739.34;5014758;28;20268;-83
2022/01/22 04:57:39;;;;;;;4.47;2.50;;;;;;;1.69;82.02;96730.00;5015204;28;20214;-83
2022/01/22 05:00:08;;;;;;;2.90;2.50;;;;;;;1.65;82.42;96736.16;5015353;28;20211;-83
2022/01/22 05:02:35;;;;;;;3.23;2.47;;;;;;;1.72;82.39;96729.81;5015265;28;20230;-83
2022/01/22 05:05:03;;;;;;;3.37;3.03;;;;;;;1.67;82.00;96728.47;5014448;28;20986;-83
2022/01/22 05:07:29;;;;;;;3.83;2.87;;;;;;;1.80;81.72;96720.91;5014299;28;20194;-83
2022/01/22 05:09:56;;;;;;;5.30;2.63;;;;;;;1.77;81.45;96716.00;5014544;28;20581;-83
2022/01/22 05:12:22;;;;;;;4.23;2.90;;;;;;;1.76;81.39;96724.53;5014377;28;20214;-83
2022/01/22 05:14:49;;;;;;;5.63;3.10;;;;;;;1.83;81.40;96725.78;5014281;28;20230;-82
2022/01/22 05:17:18;;;;;;;4.23;2.60;;;;;;;1.78;81.85;96712.56;5014766;28;20198;-82
2022/01/22 05:19:50;;;;;;;3.00;2.70;;;;;;;1.73;82.06;96721.25;5014767;28;20202;-82
2022/01/22 05:22:33;;;;;;;5.13;2.97;;;;;;;1.82;81.76;96717.34;5015435;28;20202;-82
2022/01/22 05:25:04;;;;;;;5.87;2.93;;;;;;;1.89;81.59;96721.16;5014212;28;20635;-83
2022/01/22 05:30:37;;;;;;;4.47;3.20;;;;;;;1.86;81.90;96695.94;5014472;28;20276;-82
2022/01/22 05:33:16;;;;;;;5.47;3.00;;;;;;;1.79;82.54;96699.78;5013769;28;20759;-83
2022/01/22 05:38:31;;;;;;;4.23;3.23;;;;;;;1.75;84.11;96695.78;5014754;28;20217;-83
2022/01/22 05:40:58;;;;;;;5.83;3.40;;;;;;;1.71;84.60;96704.53;5014888;28;20202;-83
2022/01/22 05:43:25;;;;;;;4.80;3.00;;;;;;;1.56;86.46;96700.38;5013867;28;20225;-82
2022/01/22 05:45:51;;;;;;;5.33;3.37;;;;;;;1.58;86.84;96698.56;5014321;28;20745;-83
2022/01/22 05:48:18;;;;;;;4.63;3.83;;;;;;;1.60;87.55;96707.72;5014360;28;20210;-83
2022/01/22 05:50:50;;;;;;;7.00;3.60;;;;;;;1.61;87.43;96719.50;5014603;28;20199;-82
2022/01/22 05:53:31;;;;;;;5.10;3.30;;;;;;;1.59;88.05;96708.63;5015537;28;20643;-83
2022/01/22 06:01:29;;;;;;;4.53;3.60;;;;;;;1.70;88.42;96721.47;5015051;28;20206;-82
2022/01/22 06:03:55;;;;;;;4.23;3.80;;;;;;;1.63;89.19;96719.41;5015313;28;20305;-83
2022/01/22 06:06:22;;;;;;;4.13;3.70;;;;;;;1.68;89.07;96713.13;5011275;28;20218;-83
2022/01/22 06:08:52;;;;;;;4.00;3.53;;;;;;;1.68;89.69;96722.47;5014841;28;20203;-83
2022/01/22 06:11:24;;;;;;;7.07;3.70;;;;;;;1.68;90.09;96715.69;5014869;28;20229;-84
2022/01/22 06:13:53;;;;;;;6.57;3.97;;;;;;;1.63;90.48;96727.00;5014203;28;20223;-83
2022/01/22 06:16:22;;;;;;;4.53;3.60;;;;;;;1.65;90.35;96728.56;4996946;28;20219;-83
2022/01/22 06:18:49;;;;;;;5.07;3.87;;;;;;;1.68;89.90;96728.38;5022103;28;20672;-83
2022/01/22 06:21:15;;;;;;;4.80;3.80;;;;;;;1.68;89.70;96730.09;5014054;28;20667;-83
2022/01/22 06:23:43;;;;;;;7.93;3.80;;;;;;;1.70;89.76;96729.09;5013146;28;20230;-83
2022/01/22 06:26:11;;;;;;;4.07;3.67;;;;;;;1.72;90.06;96734.91;5013047;28;20195;-82
2022/01/22 06:28:39;;;;;;;6.97;3.90;;;;;;;1.63;90.74;96737.16;5012778;28;20195;-83
2022/01/22 06:31:07;;;;;;;4.97;3.63;;;;;;;1.63;91.17;96737.97;5012962;28;20198;-83
2022/01/22 06:33:34;;;;;;;4.63;3.90;;;;;;;1.64;91.10;96754.84;5013509;28;20731;-83
2022/01/22 06:36:00;;;;;;;6.63;4.00;;;;;;;1.68;91.27;96751.22;5012650;28;20374;-83
2022/01/22 06:38:27;;;;;;;6.00;3.93;;;;;;;1.66;90.86;96749.69;5013614;28;20706;-83
2022/01/22 06:43:39;;;;;;;4.30;3.87;;;;;;;1.58;91.48;96749.31;5013675;28;20240;-83
2022/01/22 06:46:06;;;;;;;4.77;4.10;;;;;;;1.71;90.56;96768.81;5013001;28;20237;-83
2022/01/22 06:48:32;;;;;;;7.33;4.30;;;;;;;1.82;89.55;96764.78;5014692;28;20605;-83
2022/01/22 06:50:59;;;;;;;5.13;4.37;;;;;;;1.90;88.96;96757.53;5015132;28;20205;-83
2022/01/22 06:53:26;;;;;;;4.77;3.97;;;;;;;1.81;89.37;96758.06;5015125;28;20240;-83
2022/01/22 06:55:57;;;;;;;5.77;4.03;;;;;;;1.85;89.00;96762.06;5013833;28;20230;-85
2022/01/22 06:58:23;;;;;;;4.63;3.77;;;;;;;1.90;88.08;96760.06;5013916;28;20205;-83
2022/01/22 07:00:51;;;;;;;5.20;4.03;;;;;;;1.67;89.49;96764.00;5016175;28;20684;-83
2022/01/22 07:03:18;;;;;;;6.10;4.10;;;;;;;1.68;90.25;96766.44;5014040;28;20226;-83
2022/01/22 07:05:44;;;;;;;5.37;4.37;;;;;;;1.76;90.34;96760.88;4994888;28;20247;-83
2022/01/22 07:08:11;;;;;;;7.27;4.50;;;;;;;1.72;90.58;96757.75;5013406;28;20206;-83
2022/01/22 07:10:37;;;;;;;4.73;4.10;;;;;;;1.76;90.32;96765.16;5014580;28;20211;-83
2022/01/22 07:13:04;;;;;;;5.33;4.07;;;;;;;1.81;90.13;96765.69;5013062;28;20223;-83
2022/01/22 07:15:30;;;;;;;6.53;4.33;;;;;;;1.82;90.13;96775.75;5012766;28;20246;-83
2022/01/22 07:17:58;;;;;;;5.63;4.50;;;;;;;1.82;90.40;96783.38;5012962;28;20203;-83
2022/01/22 07:20:28;;;;;;;5.27;4.53;;;;;;;1.80;91.49;96777.56;5013615;28;20703;-83
2022/01/22 07:23:01;;;;;;;6.43;4.60;;;;;;;1.84;91.42;96789.19;5013607;28;20214;-84
2022/01/22 07:25:29;;;;;;;5.97;4.63;;;;;;;1.85;91.97;96790.81;5013779;28;20327;-84
2022/01/22 07:27:56;;;;;;;7.70;4.50;;;;;;;1.83;92.15;96786.72;5013871;28;20198;-84
2022/01/22 07:30:22;;;;;;;8.23;5.47;;;;;;;1.87;92.40;96780.56;5014013;28;20203;-83
2022/01/22 07:32:49;;;;;;;5.97;4.77;;;;;;;1.87;92.92;96786.47;5013119;28;20215;-82
2022/01/22 07:35:18;;;;;;;6.20;4.57;;;;;;;1.85;93.49;96784.91;5013458;28;20729;-83
2022/01/22 07:37:45;;;;;;;7.40;5.30;;;;;;;1.76;94.23;96780.38;5012816;28;20561;-83
2022/01/22 07:40:12;;;;;;;5.77;4.87;;;;;;;1.90;93.55;96804.06;5013812;28;20207;-84
2022/01/22 07:42:40;;;;;;;6.30;4.80;;;;;;;1.77;94.76;96792.97;5013129;28;20226;-83
2022/01/22 07:45:07;;;;;;;5.70;4.83;;;;;;;1.82;94.79;96797.78;5012937;28;20261;-83
2022/01/22 07:47:34;;;;;;;7.20;5.37;;;;;;;1.85;95.10;96807.75;5013306;28;20203;-83
2022/01/22 07:50:01;;;;;;;7.10;5.13;;;;;;;1.88;94.20;96808.41;5013266;28;20198;-83
2022/01/22 07:52:29;;;;;;;6.70;4.80;;;;;;;1.94;93.48;96812.28;5015943;28;20233;-83
2022/01/22 07:54:55;;;;;;;5.70;5.20;;;;;;;1.90;93.84;96816.75;5017401;28;20254;-83
2022/01/22 07:57:22;;;;;;;6.83;4.90;;;;;;;1.95;94.27;96822.34;5017032;28;20206;-82
2022/01/22 07:59:49;;;;;;;5.93;4.90;;;;;;;1.88;93.91;96825.38;5016677;28;20206;-83
2022/01/22 08:02:16;;;;;;;6.40;4.93;;;;;;;1.80;95.34;96822.47;5016060;28;20203;-82
2022/01/22 08:04:42;;;;;;;7.33;5.03;;;;;;;1.90;94.17;96821.00;5018232;28;20230;-84
2022/01/22 08:07:09;;;;;;;6.47;5.07;;;;;;;1.93;93.67;96818.25;5017560;28;20803;-82
2022/01/22 08:09:37;;;;;;;7.33;5.17;;;;;;;1.87;93.43;96816.94;5015984;28;20206;-82
2022/01/22 08:12:04;;;;;;;6.40;5.47;;;;;;;1.88;93.77;96812.66;5017302;28;20214;-83
2022/01/22 08:14:31;;;;;;;6.73;5.20;;;;;;;1.78;94.54;96822.53;5015957;28;20719;-83
2022/01/22 08:16:57;;;;;;;6.30;5.70;;;;;;;1.88;93.97;96822.81;5016986;28;20234;-83
2022/01/22 08:19:24;;;;;;;6.07;4.67;;;;;;;1.74;93.88;96814.28;5017499;28;20612;-83
2022/01/22 08:21:50;;;;;;;6.67;5.00;;;;;;;1.86;92.96;96817.03;5015613;28;20215;-83
2022/01/22 08:24:19;;;;;;;8.23;5.77;;;;;;;1.86;93.14;96819.56;5013891;28;20696;-83
2022/01/22 08:26:51;;;;;;;7.30;5.47;;;;;;;1.89;92.99;96821.91;5015876;28;20218;-83
2022/01/22 08:29:17;;;;;;;5.90;5.00;;;;;;;1.93;92.94;96829.22;5003203;28;20210;-82
2022/01/22 08:31:51;;;;;;;7.27;5.20;;;;;;;1.94;92.77;96824.97;5011087;28;20199;-83
2022/01/22 08:37:01;;;;;;;7.33;5.30;;;;;;;2.05;91.61;96837.84;4993403;28;20232;-82
2022/01/22 08:39:28;;;;;;;6.70;5.57;;;;;;;2.03;91.47;96837.13;5015966;28;20206;-83
2022/01/22 08:41:56;;;;;;;8.43;5.60;;;;;;;2.05;91.58;96836.13;5019042;28;20202;-83
2022/01/22 08:44:23;;;;;;;5.30;4.80;;;;;;;2.10;91.33;96837.56;5001368;28;20241;-83
2022/01/22 08:46:49;;;;;;;6.33;5.30;;;;;;;2.14;91.10;96839.81;5015876;28;20202;-83
2022/01/22 08:49:16;;;;;;;6.53;5.53;;;;;;;2.07;90.96;96847.00;5014709;28;20217;-83
2022/01/22 08:51:42;;;;;;;5.87;4.63;;;;;;;2.02;91.72;96846.47;5014253;28;20217;-83
2022/01/22 08:54:10;;;;;;;6.03;5.23;;;;;;;2.00;91.72;96848.28;5009921;28;20604;-83
2022/01/22 08:56:37;;;;;;;5.33;4.83;;;;;;;2.01;nan;96859.25;5015410;28;20257;-83
2022/01/22 08:59:05;;;;;;;9.10;5.50;;;;;;;2.10;92.07;96850.28;5014882;28;20203;-83
2022/01/22 09:01:31;;;;;;;9.30;7.37;;;;;;;2.07;92.03;96856.34;5017027;28;20205;-83
2022/01/22 09:03:58;;;;;;;6.90;5.77;;;;;;;2.13;91.89;96863.59;5015490;28;20226;-82
2022/01/22 09:06:25;;;;;;;6.00;5.17;;;;;;;2.03;92.82;96858.25;5015308;28;20704;-83
2022/01/22 09:08:58;;;;;;;7.63;5.53;;;;;;;2.08;92.69;96858.00;5016550;28;20199;-84
2022/01/22 09:11:25;;;;;;;5.73;5.17;;;;;;;2.07;92.92;96857.16;5015683;28;20206;-83
2022/01/22 09:13:53;;;;;;;7.30;5.90;;;;;;;2.10;92.37;96861.25;5014404;28;20736;-84
2022/01/22 09:16:21;;;;;;;7.60;5.40;;;;;;;2.12;92.23;96861.16;5014181;28;20219;-83
2022/01/22 09:18:48;;;;;;;8.60;6.37;;;;;;;2.16;92.28;96873.56;5016617;28;20518;-83
2022/01/22 09:21:15;;;;;;;7.47;5.90;;;;;;;2.10;92.98;96870.59;5017667;28;20217;-84
2022/01/22 09:23:41;;;;;;;9.23;5.83;;;;;;;2.15;93.09;96879.56;5018198;28;20230;-83
2022/01/22 09:26:08;;;;;;;6.10;5.50;;;;;;;2.14;92.68;96884.72;5017306;28;20223;-84
2022/01/22 09:28:35;;;;;;;7.83;5.80;;;;;;;2.19;93.03;96885.28;5016076;28;20290;-84
2022/01/22 09:31:02;;;;;;;7.70;5.37;;;;;;;2.15;92.86;96884.63;5015634;28;20663;-84
2022/01/22 09:33:30;;;;;;;9.67;5.37;;;;;;;2.84;100.00;96878.66;5014882;28;20226;-80
2022/01/22 09:35:57;;;;;;;5.63;5.03;;;;;;;3.12;90.44;96881.06;5013017;28;20852;-83
2022/01/22 09:38:23;;;;;;;6.60;5.13;;;;;;;2.96;88.01;96887.22;5014175;28;20202;-83
2022/01/22 09:40:50;;;;;;;6.30;4.93;;;;;;;2.82;88.38;96887.28;5015139;28;20202;-82
2022/01/22 09:43:16;;;;;;;10.23;5.73;;;;;;;2.61;89.46;96897.91;5015364;28;20226;-84
2022/01/22 09:45:43;;;;;;;7.60;5.67;;;;;;;2.63;89.65;96898.63;5014693;28;20230;-82
2022/01/22 09:48:09;;;;;;;8.07;5.30;;;;;;;2.66;89.85;96897.63;5014164;28;20214;-82
2022/01/22 09:50:37;;;;;;;8.90;7.23;;;;;;;3.04;100.00;96896.00;5015068;28;20199;-80
2022/01/22 09:53:05;;;;;;;9.00;5.20;;;;;;;3.80;100.00;96908.03;5014174;28;20254;-84
2022/01/22 09:55:31;;;;;;;5.70;4.70;;;;;;;3.57;83.95;96907.00;5011752;28;20249;-84
2022/01/22 09:57:59;;;;;;;7.47;5.13;;;;;;;3.30;84.12;96911.31;5015064;28;20205;-84
2022/01/22 10:00:26;;;;;;;7.93;5.30;;;;;;;3.03;85.50;96909.66;5015343;28;20190;-83
2022/01/22 10:02:54;;;;;;;6.87;5.30;;;;;;;2.81;86.92;96924.63;5015133;28;20226;-83
2022/01/22 10:05:33;;;;;;;8.60;5.60;;;;;;;2.78;88.33;96925.63;5014111;28;20770;-84
2022/01/22 10:08:24;;;;;;;6.30;5.27;;;;;;;2.68;88.83;96928.84;5020192;28;20196;-83
2022/01/22 10:10:53;;;;;;;6.77;5.80;;;;;;;2.55;89.15;96925.41;5014104;28;20241;-84
2022/01/22 10:13:42;;;;;;;7.10;5.60;;;;;;;2.65;89.72;96929.03;5014768;28;20573;-83
2022/01/22 10:16:18;;;;;;;5.93;5.33;;;;;;;2.59;89.31;96922.59;5013052;28;20226;-82
2022/01/22 10:18:46;;;;;;;9.87;7.30;;;;;;;2.50;89.88;96927.44;5014206;28;20282;-81
2022/01/22 10:21:14;;;;;;;7.43;5.83;;;;;;;2.50;90.03;96924.91;5013833;28;20195;-83
2022/01/22 10:23:42;;;;;;;7.43;5.70;;;;;;;2.56;89.97;96920.22;5013795;28;20417;-82
2022/01/22 10:26:13;;;;;;;6.67;5.80;;;;;;;2.50;90.76;96928.25;5012776;28;20222;-83
2022/01/22 10:28:43;;;;;;;6.83;5.73;;;;;;;2.55;90.41;96913.53;5013797;28;20294;-83
2022/01/22 10:31:19;;;;;;;6.57;5.27;;;;;;;2.55;90.41;96923.69;5013624;28;20205;-83
2022/01/22 10:34:04;;;;;;;6.80;5.13;;;;;;;2.52;90.82;96918.78;4994810;28;20223;-83
2022/01/22 10:36:30;;;;;;;8.03;5.47;;;;;;;2.41;90.82;96923.72;5013536;28;20246;-83
2022/01/22 10:38:58;;;;;;;7.97;5.47;;;;;;;2.48;90.68;96926.72;5014368;28;20209;-82
2022/01/22 10:41:33;;;;;;;6.67;5.60;;;;;;;2.50;90.90;96918.09;5013533;28;20672;-83
2022/01/22 10:44:01;;;;;;;6.07;5.30;;;;;;;2.54;89.62;96913.59;5013693;28;20596;-82
2022/01/22 10:46:34;;;;;;;5.90;5.30;;;;;;;2.42;90.25;96910.91;5013612;28;20226;-83
2022/01/22 10:49:05;;;;;;;7.73;5.17;;;;;;;2.41;90.67;96909.28;5013488;28;20218;-82
2022/01/22 10:51:43;;;;;;;6.77;5.60;;;;;;;2.46;91.00;96909.00;5013222;28;20773;-83
2022/01/22 10:54:14;;;;;;;7.13;5.40;;;;;;;2.50;90.77;96907.91;5013231;28;20617;-83
2022/01/22 10:56:41;;;;;;;7.27;5.43;;;;;;;2.49;90.44;96918.19;5011130;28;20229;-82
2022/01/22 10:59:09;;;;;;;10.50;5.40;;;;;;;2.42;90.79;96918.56;5010936;28;20218;-83
2022/01/22 11:01:46;;;;;;;6.20;5.07;;;;;;;2.54;90.95;96913.59;5013210;28;20592;-83
2022/01/22 11:04:15;;;;;;;6.77;6.03;;;;;;;2.54;90.66;96924.59;5013109;28;20222;-83
2022/01/22 11:06:49;;;;;;;7.80;6.00;;;;;;;2.57;90.65;96918.50;5010035;28;20191;-84
2022/01/22 11:09:17;;;;;;;6.07;5.33;;;;;;;2.59;89.87;96914.16;5012911;28;20211;-83
2022/01/22 11:11:43;;;;;;;5.87;5.27;;;;;;;2.66;89.58;96913.69;5014022;28;20218;-83
2022/01/22 11:14:12;;;;;;;6.83;5.30;;;;;;;2.66;88.74;96912.88;5014346;28;20253;-83
2022/01/22 11:16:40;;;;;;;7.10;5.47;;;;;;;2.73;88.75;96919.19;5014459;28;20219;-83
2022/01/22 11:19:08;;;;;;;8.03;5.43;;;;;;;2.77;88.77;96925.72;5014136;28;20206;-83
2022/01/22 11:21:37;;;;;;;6.10;5.50;;;;;;;2.71;88.45;96936.25;5014182;28;20202;-83
2022/01/22 11:24:05;;;;;;;6.60;5.17;;;;;;;2.74;88.70;96918.28;5013438;28;20215;-83
2022/01/22 11:26:32;;;;;;;7.03;5.00;;;;;;;2.74;88.43;96926.72;5017140;28;20202;-83
2022/01/22 11:28:59;;;;;;;5.60;5.07;;;;;;;2.79;88.49;96926.44;5017655;28;20218;-83
2022/01/22 11:31:26;;;;;;;8.13;5.13;;;;;;;2.80;88.39;96924.72;5016577;28;20207;-83
2022/01/22 11:33:55;;;;;;;6.00;5.40;;;;;;;2.78;88.26;96929.91;5016051;28;20218;-83
2022/01/22 11:36:26;;;;;;;6.73;5.73;;;;;;;2.72;88.71;96936.16;5016848;28;20253;-83
2022/01/22 11:38:55;;;;;;;7.60;6.30;;;;;;;2.67;89.19;96935.66;5016500;28;20276;-83
2022/01/22 11:41:23;;;;;;;6.13;5.20;;;;;;;2.63;89.41;96943.56;5017635;28;20202;-83
2022/01/22 11:44:03;;;;;;;6.23;5.40;;;;;;;2.67;89.22;96937.38;5019007;28;20222;-83
2022/01/22 11:46:34;;;;;;;7.43;5.43;;;;;;;2.71;88.67;96926.91;5018247;28;20696;-83
2022/01/22 11:49:12;;;;;;;6.27;5.40;;;;;;;2.69;88.34;96928.72;4998804;28;20195;-83
2022/01/22 11:51:39;;;;;;;5.87;5.07;;;;;;;2.70;88.49;96939.72;5017529;28;20217;-82
2022/01/22 11:54:06;;;;;;;7.50;5.47;;;;;;;2.76;88.30;96921.53;5017558;28;20223;-83
2022/01/22 11:56:43;;;;;;;5.80;5.03;;;;;;;2.80;88.05;96929.81;5017985;28;20215;-83
2022/01/22 11:59:31;;;;;;;6.37;5.20;;;;;;;2.78;88.72;96927.34;5016433;28;20264;-83
2022/01/22 12:02:07;;;;;;;6.73;5.63;;;;;;;2.72;88.83;96926.00;5017605;28;20206;-83
2022/01/22 12:04:49;;;;;;;7.80;6.10;;;;;;;2.71;88.74;96929.44;5017128;28;20226;-82
2022/01/22 12:07:21;;;;;;;8.83;5.70;;;;;;;2.75;89.38;96935.16;5015582;28;20230;-83
2022/01/22 12:10:17;;;;;;;7.27;5.73;;;;;;;2.83;89.37;96922.81;5023165;28;20206;-83
2022/01/22 12:15:53;;;;;;;7.47;5.53;;;;;;;2.84;89.14;96918.53;5016174;28;20233;-83
2022/01/22 12:18:27;;;;;;;8.97;5.97;;;;;;;2.89;89.04;96916.50;5015702;28;20201;-83
2022/01/22 12:23:51;;;;;;;7.03;5.83;;;;;;;2.68;89.96;96918.69;5001329;28;20300;-82
2022/01/22 12:26:52;;;;;;;6.60;5.67;;;;;;;2.76;89.55;96913.91;5015851;28;20754;-83
2022/01/22 12:29:40;;;;;;;11.37;8.17;;;;;;;2.83;89.51;96911.81;5015190;28;20202;-83
2022/01/22 12:32:11;;;;;;;8.87;6.27;;;;;;;2.88;88.84;96904.72;5017124;28;20202;-83
2022/01/22 12:34:56;;;;;;;6.90;5.70;;;;;;;2.87;89.42;96916.63;5016333;28;20226;-83
2022/01/22 12:37:23;;;;;;;9.03;6.10;;;;;;;2.94;88.89;96920.38;5016142;28;20215;-83
2022/01/22 12:39:53;;;;;;;8.67;6.00;;;;;;;2.84;88.74;96921.09;5016516;28;20290;-84
2022/01/22 12:42:28;;;;;;;6.27;5.67;;;;;;;2.90;88.90;96916.41;5017590;28;20648;-82
2022/01/22 12:44:59;;;;;;;6.90;5.20;;;;;;;3.97;100.00;96920.44;5015197;28;20233;-80
2022/01/22 12:47:28;;;;;;;110.43;9.93;;;;;;;4.75;97.13;96909.97;5015566;28;20229;-84
2022/01/22 12:50:03;;;;;;;8.00;5.70;;;;;;;4.53;80.70;96908.09;5017307;28;20230;-83
2022/01/22 12:52:30;;;;;;;6.97;4.90;;;;;;;4.10;81.05;96908.50;5014462;28;20287;-83
2022/01/22 12:54:59;;;;;;;6.23;5.63;;;;;;;3.81;83.04;96912.19;5014983;28;20219;-84
2022/01/22 12:57:28;;;;;;;7.87;5.63;;;;;;;3.57;84.72;96914.63;5016703;28;20219;-83
2022/01/22 13:00:01;;;;;;;7.37;5.83;;;;;;;3.41;85.27;96909.72;5016499;28;20285;-83